Time,TemperatureF,DewpointF,PressureIn,WindDirection,WindDirectionDegrees,WindSpeedMPH,WindSpeedGustMPH,Humidity,HourlyPrecipIn,Conditions,Clouds,dailyrainin,SolarRadiationWatts/m^2,SoftwareType,DateUTC
2013-03-10 00:06:00,44.2,36.8,31.22,NNW,327,0.0,0.0,75,0.00,,,0.00,0,Wunderground v.1.15,2013-03-10 08:06:00,
2013-03-10 00:11:00,44.0,36.6,31.22,NNW,327,0.0,0.0,75,0.00,,,0.00,0,Wunderground v.1.15,2013-03-10 08:11:00,
2013-03-10 00:17:00,43.8,36.4,31.22,NNW,327,0.0,0.0,75,0.00,,,0.00,0,Wunderground v.1.15,2013-03-10 08:17:00,
2013-03-10 00:23:00,43.6,36.2,31.22,NNW,327,0.0,0.0,75,0.00,,,0.00,0,Wunderground v.1.15,2013-03-10 08:23:00,
2013-03-10 00:30:00,43.4,36.3,31.22,NNW,327,0.0,0.0,76,0.00,,,0.00,0,Wunderground v.1.15,2013-03-10 08:30:00,
2013-03-10 00:36:00,43.2,36.1,31.22,NW,326,0.0,0.0,76,0.00,,,0.00,0,Wunderground v.1.15,2013-03-10 08:36:00,
2013-03-10 00:42:00,43.0,36.0,31.22,NNW,327,0.0,0.0,76,0.00,,,0.00,0,Wunderground v.1.15,2013-03-10 08:42:00,
2013-03-10 00:47:00,42.8,35.8,31.22,NNW,327,0.0,0.0,76,0.00,,,0.00,0,Wunderground v.1.15,2013-03-10 08:47:00,
2013-03-10 00:53:00,42.5,35.5,31.22,NNW,327,0.0,0.0,76,0.00,,,0.00,0,Wunderground v.1.15,2013-03-10 08:53:00,
2013-03-10 01:00:00,42.3,35.6,31.22,NW,326,0.0,0.0,77,0.00,,,0.00,0,Wunderground v.1.15,2013-03-10 09:00:00,
2013-03-10 01:06:00,42.2,35.5,31.22,NNW,327,0.0,0.0,77,0.00,,,0.00,0,Wunderground v.1.15,2013-03-10 09:06:00,
2013-03-10 01:11:00,42.0,35.3,31.22,NNW,327,0.0,0.0,77,0.00,,,0.00,0,Wunderground v.1.15,2013-03-10 09:11:00,
2013-03-10 01:18:00,41.7,35.0,31.22,NW,326,0.0,0.0,77,0.00,,,0.00,0,Wunderground v.1.15,2013-03-10 09:18:00,
2013-03-10 01:24:00,41.6,35.2,31.22,NNW,327,0.0,1.0,78,0.00,,,0.00,0,Wunderground v.1.15,2013-03-10 09:24:00,
2013-03-10 01:30:00,41.6,35.2,31.23,NW,326,0.0,0.0,78,0.00,,,0.00,0,Wunderground v.1.15,2013-03-10 09:30:00,
2013-03-10 01:36:00,41.6,35.2,31.22,NNW,327,0.0,0.0,78,0.00,,,0.00,0,Wunderground v.1.15,2013-03-10 09:36:00,
2013-03-10 01:41:00,41.6,35.6,31.22,NW,326,0.0,0.0,79,0.00,,,0.00,0,Wunderground v.1.15,2013-03-10 09:41:00,
2013-03-10 01:47:00,41.5,35.5,31.22,NW,326,0.0,0.0,79,0.00,,,0.00,0,Wunderground v.1.15,2013-03-10 09:47:00,
2013-03-10 01:53:00,41.5,35.5,31.22,NNW,327,0.0,0.0,79,0.00,,,0.00,0,Wunderground v.1.15,2013-03-10 09:53:00,
2013-03-10 03:00:00,41.5,35.5,31.22,NNW,327,0.0,0.0,79,0.00,,,0.00,0,Wunderground v.1.15,2013-03-10 10:00:00,
2013-03-10 03:05:00,41.3,35.3,31.22,NNW,327,0.0,0.0,79,0.00,,,0.00,0,Wunderground v.1.15,2013-03-10 10:05:00,
2013-03-10 03:11:00,41.1,35.1,31.22,NW,326,0.0,0.0,79,0.00,,,0.00,0,Wunderground v.1.15,2013-03-10 10:11:00,
2013-03-10 03:18:00,41.0,35.0,31.22,NNW,327,0.0,0.0,79,0.00,,,0.00,0,Wunderground v.1.15,2013-03-10 10:18:00,
2013-03-10 03:24:00,40.9,35.2,31.22,NNW,327,0.0,0.0,80,0.00,,,0.00,0,Wunderground v.1.15,2013-03-10 10:24:00,
2013-03-10 03:30:00,40.9,35.2,31.22,NW,326,0.0,0.0,80,0.00,,,0.00,0,Wunderground v.1.15,2013-03-10 10:30:00,
2013-03-10 03:36:00,40.8,35.1,31.22,NNW,327,0.0,0.0,80,0.00,,,0.00,0,Wunderground v.1.15,2013-03-10 10:36:00,
2013-03-10 03:41:00,40.7,35.3,31.22,NNW,327,0.0,0.0,81,0.00,,,0.00,0,Wunderground v.1.15,2013-03-10 10:41:00,
2013-03-10 03:47:00,40.6,35.2,31.22,NW,326,0.0,0.0,81,0.00,,,0.00,0,Wunderground v.1.15,2013-03-10 10:47:00,
2013-03-10 03:53:00,40.5,35.1,31.22,NNW,327,0.0,0.0,81,0.00,,,0.00,0,Wunderground v.1.15,2013-03-10 10:53:00,
2013-03-10 04:00:00,40.5,35.1,31.22,NNW,327,0.0,0.0,81,0.00,,,0.00,0,Wunderground v.1.15,2013-03-10 11:00:00,
2013-03-10 04:05:00,40.4,35.0,31.22,NW,326,0.0,0.0,81,0.00,,,0.00,0,Wunderground v.1.15,2013-03-10 11:05:00,
2013-03-10 04:12:00,40.3,34.9,31.22,NNW,327,0.0,0.0,81,0.00,,,0.00,0,Wunderground v.1.15,2013-03-10 11:12:00,
2013-03-10 04:18:00,40.3,35.2,31.22,NNW,327,0.0,0.0,82,0.00,,,0.00,0,Wunderground v.1.15,2013-03-10 11:18:00,
2013-03-10 04:24:00,40.2,35.1,31.22,NNW,327,0.0,0.0,82,0.00,,,0.00,0,Wunderground v.1.15,2013-03-10 11:24:00,
2013-03-10 04:29:00,40.3,35.2,31.22,NW,326,0.0,0.0,82,0.00,,,0.00,0,Wunderground v.1.15,2013-03-10 11:29:00,
2013-03-10 04:35:00,40.5,35.7,31.21,NNW,327,0.0,0.0,83,0.00,,,0.00,0,Wunderground v.1.15,2013-03-10 11:35:00,
2013-03-10 04:41:00,40.5,35.7,31.22,NNW,327,0.0,0.0,83,0.00,,,0.00,0,Wunderground v.1.15,2013-03-10 11:41:00,
2013-03-10 04:48:00,40.4,35.6,31.22,NNW,327,0.0,0.0,83,0.00,,,0.00,0,Wunderground v.1.15,2013-03-10 11:48:00,
2013-03-10 04:54:00,40.2,35.4,31.22,NNW,327,0.0,0.0,83,0.00,,,0.00,0,Wunderground v.1.15,2013-03-10 11:54:00,
2013-03-10 05:00:00,40.2,35.4,31.21,NW,326,0.0,0.0,83,0.00,,,0.00,0,Wunderground v.1.15,2013-03-10 12:00:00,
2013-03-10 05:06:00,40.1,35.4,31.21,NNW,327,0.0,0.0,83,0.00,,,0.00,0,Wunderground v.1.15,2013-03-10 12:06:00,
2013-03-10 05:12:00,40.0,35.3,31.22,NNW,327,0.0,0.0,83,0.00,,,0.00,0,Wunderground v.1.15,2013-03-10 12:12:00,
2013-03-10 05:18:00,39.9,35.2,31.22,NNW,327,0.0,0.0,83,0.00,,,0.00,0,Wunderground v.1.15,2013-03-10 12:18:00,